createdAt,value
2022-08-05T00:00:52.378Z,25.37
2022-08-05T00:03:57.538Z,25.29
2022-08-05T00:07:00.433Z,25.28
2022-08-05T00:10:27.130Z,25.20
2022-08-05T00:13:39.335Z,25.20
2022-08-05T00:16:52.650Z,25.17
2022-08-05T00:20:02.849Z,25.18
2022-08-05T00:23:12.754Z,25.15
2022-08-05T00:26:17.069Z,25.12
2022-08-05T00:29:25.237Z,25.05
2022-08-05T00:32:28.334Z,25.09
2022-08-05T00:35:33.414Z,25.06
2022-08-05T00:38:36.569Z,25.12
2022-08-05T00:41:51.664Z,25.17
2022-08-05T00:44:58.093Z,25.17
2022-08-05T00:48:05.707Z,25.13
2022-08-05T00:51:50.001Z,25.12
2022-08-05T00:54:33.115Z,25.21
2022-08-05T00:57:38.381Z,25.40
2022-08-05T01:00:58.716Z,25.64
2022-08-05T01:04:01.484Z,25.82
2022-08-05T01:07:05.777Z,26.06
2022-08-05T01:10:11.417Z,26.20
2022-08-05T01:13:27.587Z,26.26
2022-08-05T01:16:52.327Z,26.39
2022-08-05T01:20:04.278Z,26.39
2022-08-05T01:23:22.760Z,26.33
2022-08-05T01:26:45.400Z,26.34
2022-08-05T01:29:57.498Z,26.35
2022-08-05T01:33:01.630Z,26.35
2022-08-05T01:36:12.698Z,26.28
2022-08-05T01:39:45.998Z,26.33
2022-08-05T01:42:44.053Z,26.35
2022-08-05T01:45:48.293Z,26.35
2022-08-05T01:49:01.603Z,26.35
2022-08-05T01:52:25.360Z,26.30
2022-08-05T01:55:31.153Z,26.25
2022-08-05T01:58:45.120Z,26.24
2022-08-05T02:01:54.750Z,26.23
2022-08-05T02:05:01.741Z,26.24
2022-08-05T02:08:07.237Z,26.20
2022-08-05T02:11:12.730Z,26.20
2022-08-05T02:14:21.899Z,26.16
2022-08-05T02:18:28.108Z,26.01
2022-08-05T02:21:02.381Z,25.80
2022-08-05T02:24:10.054Z,25.60
2022-08-05T02:27:14.523Z,25.43
2022-08-05T02:30:18.178Z,25.31
2022-08-05T02:33:36.008Z,25.21
2022-08-05T02:36:45.089Z,25.15
2022-08-05T02:39:51.755Z,25.06
2022-08-05T02:42:56.678Z,24.97
2022-08-05T02:46:01.077Z,24.79
2022-08-05T02:49:07.366Z,24.73
2022-08-05T02:52:29.727Z,24.68
2022-08-05T02:55:53.832Z,24.58
2022-08-05T02:59:00.083Z,24.55
2022-08-05T03:02:03.846Z,24.51
2022-08-05T03:05:10.648Z,24.50
2022-08-05T03:08:16.545Z,24.47
2022-08-05T03:11:53.588Z,24.41
2022-08-05T03:14:48.168Z,24.43
2022-08-05T03:17:54.108Z,24.43
2022-08-05T03:21:00.185Z,24.48
2022-08-05T03:24:04.116Z,24.48
2022-08-05T03:27:06.906Z,24.43
2022-08-05T03:30:11.256Z,24.41
2022-08-05T03:33:14.218Z,24.33
2022-08-05T03:36:30.374Z,24.27
2022-08-05T03:39:47.175Z,24.24
2022-08-05T03:42:56.595Z,24.17
2022-08-05T03:46:01.413Z,24.07
2022-08-05T03:49:04.396Z,24.03
2022-08-05T03:52:39.199Z,23.94
2022-08-05T03:56:09.958Z,23.85
2022-08-05T03:59:10.910Z,23.86
2022-08-05T04:02:17.602Z,23.85
2022-08-05T04:05:40.198Z,23.81
2022-08-05T04:08:48.636Z,23.76
2022-08-05T04:11:52.628Z,23.74
2022-08-05T04:14:57.569Z,23.74
2022-08-05T04:18:03.247Z,23.76
2022-08-05T04:21:07.257Z,23.76
2022-08-05T04:24:19.293Z,23.82
2022-08-05T04:27:41.793Z,23.78
2022-08-05T04:30:46.448Z,23.77
2022-08-05T04:34:18.238Z,23.78
2022-08-05T04:37:13.800Z,23.85
2022-08-05T04:40:19.497Z,23.91
2022-08-05T04:43:22.482Z,23.96
2022-08-05T04:46:28.442Z,24.07
2022-08-05T04:50:01.092Z,24.18
2022-08-05T04:52:59.831Z,24.28
2022-08-05T04:56:33.269Z,24.33
2022-08-05T04:59:39.232Z,24.39
2022-08-05T05:02:43.714Z,24.39
2022-08-05T05:06:40.068Z,24.47
2022-08-05T05:09:09.853Z,24.54
2022-08-05T05:12:18.425Z,24.61
2022-08-05T05:15:56.421Z,24.74
2022-08-05T05:19:02.563Z,24.87
2022-08-05T05:22:24.101Z,24.95
2022-08-05T05:25:32.475Z,24.99
2022-08-05T05:28:42.631Z,25.10
2022-08-05T05:31:47.631Z,25.18
2022-08-05T05:34:52.435Z,25.29
2022-08-05T05:37:59.511Z,25.36
2022-08-05T05:41:03.193Z,25.41
2022-08-05T05:44:35.848Z,25.62
2022-08-05T05:47:30.207Z,25.67
2022-08-05T05:50:53.341Z,25.77
2022-08-05T05:53:59.575Z,25.85
2022-08-05T05:57:03.057Z,25.94
2022-08-05T06:00:11.040Z,25.99
2022-08-05T06:03:40.239Z,26.01
2022-08-05T06:06:37.434Z,26.07
2022-08-05T06:10:00.107Z,26.10
2022-08-05T06:13:04.978Z,26.19
2022-08-05T06:16:29.649Z,26.22
2022-08-05T06:19:34.457Z,26.32
2022-08-05T06:22:38.246Z,26.48
2022-08-05T06:26:13.252Z,26.57
2022-08-05T06:29:25.434Z,26.65
2022-08-05T06:32:30.402Z,26.83
2022-08-05T06:36:03.463Z,27.40
2022-08-05T06:38:56.573Z,28.25
2022-08-05T06:42:04.073Z,28.80
2022-08-05T06:45:08.937Z,28.92
2022-08-05T06:48:55.760Z,28.82
2022-08-05T06:51:36.134Z,28.76
2022-08-05T06:54:43.632Z,28.63
2022-08-05T06:58:02.900Z,28.55
2022-08-05T07:01:14.178Z,28.32
2022-08-05T07:04:25.035Z,28.07
2022-08-05T07:07:43.045Z,27.99
2022-08-05T07:10:53.164Z,28.15
2022-08-05T07:14:20.074Z,28.33
2022-08-05T07:17:59.534Z,28.46
2022-08-05T07:20:47.818Z,28.66
2022-08-05T07:23:52.225Z,28.79
2022-08-05T07:26:55.278Z,28.96
2022-08-05T07:30:25.373Z,29.18
2022-08-05T07:33:37.090Z,29.35
2022-08-05T07:36:42.333Z,29.58
2022-08-05T07:40:04.383Z,29.87
2022-08-05T07:43:14.767Z,30.13
2022-08-05T07:46:26.014Z,30.29
2022-08-05T07:49:29.170Z,30.55
2022-08-05T07:52:33.342Z,30.65
2022-08-05T07:55:44.245Z,30.81
2022-08-05T07:58:59.559Z,31.03
2022-08-05T08:02:03.141Z,30.95
2022-08-05T08:05:06.879Z,31.00
2022-08-05T08:08:12.360Z,31.04
2022-08-05T08:11:15.971Z,30.72
2022-08-05T08:14:19.187Z,30.73
2022-08-05T08:17:22.248Z,30.86
2022-08-05T08:21:00.312Z,30.98
2022-08-05T08:24:01.380Z,30.96
2022-08-05T08:27:07.365Z,31.06
2022-08-05T08:30:27.648Z,31.19
2022-08-05T08:33:37.645Z,31.26
2022-08-05T08:36:48.819Z,31.52
2022-08-05T08:39:56.985Z,31.62
2022-08-05T08:45:16.448Z,31.51
2022-08-05T08:46:28.490Z,31.36
2022-08-05T08:50:22.252Z,31.27
2022-08-05T08:53:03.045Z,31.37
2022-08-05T08:56:12.514Z,31.50
2022-08-05T08:59:19.709Z,31.46
2022-08-05T09:02:26.891Z,31.61
2022-08-05T09:05:38.520Z,31.83
2022-08-05T09:08:52.580Z,31.89
2022-08-05T09:12:00.167Z,32.02
2022-08-05T09:15:07.503Z,32.16
2022-08-05T09:18:13.425Z,32.24
2022-08-05T09:21:21.229Z,32.30
2022-08-05T09:24:39.891Z,32.30
2022-08-05T09:28:03.800Z,32.33
2022-08-05T09:31:22.988Z,32.50
2022-08-05T09:34:47.712Z,32.47
2022-08-05T09:38:16.366Z,32.60
2022-08-05T09:41:16.170Z,32.75
2022-08-05T09:44:34.169Z,32.66
2022-08-05T09:47:55.457Z,32.67
2022-08-05T09:51:01.351Z,32.67
2022-08-05T09:54:06.794Z,32.87
2022-08-05T09:57:23.417Z,32.97
2022-08-05T10:00:30.387Z,33.18
2022-08-05T10:03:56.496Z,33.31
2022-08-05T10:06:59.928Z,33.34
2022-08-05T10:10:15.308Z,33.38
2022-08-05T10:13:43.872Z,33.47
2022-08-05T10:16:52.756Z,33.61
2022-08-05T10:20:02.805Z,33.32
2022-08-05T10:23:08.920Z,33.70
2022-08-05T10:26:31.638Z,34.00
2022-08-05T10:30:41.046Z,34.10
2022-08-05T10:33:02.783Z,34.12
2022-08-05T10:36:06.726Z,34.10
2022-08-05T10:39:24.425Z,34.09
2022-08-05T10:42:33.364Z,34.16
2022-08-05T10:45:40.098Z,34.09
2022-08-05T10:48:57.427Z,34.22
2022-08-05T10:52:03.252Z,34.44
2022-08-05T10:55:11.041Z,34.65
2022-08-05T10:58:20.529Z,34.85
2022-08-05T11:01:55.496Z,34.92
2022-08-05T11:04:56.325Z,34.96
2022-08-05T11:08:04.780Z,34.84
2022-08-05T11:11:52.143Z,34.86
2022-08-05T11:15:19.376Z,35.00
2022-08-05T11:18:29.986Z,34.95
2022-08-05T11:21:48.756Z,35.12
2022-08-05T11:26:05.145Z,34.83
2022-08-05T11:28:50.734Z,34.87
2022-08-05T11:32:27.311Z,34.97
2022-08-05T11:36:07.719Z,35.15
2022-08-05T11:39:13.747Z,35.32
2022-08-05T11:42:18.777Z,35.47
2022-08-05T11:45:26.853Z,35.52
2022-08-05T11:48:44.494Z,35.45
2022-08-05T11:51:49.903Z,35.46
2022-08-05T11:54:55.782Z,35.54
2022-08-05T11:58:10.254Z,35.59
2022-08-05T12:01:19.020Z,35.63
2022-08-05T12:04:22.339Z,35.60
2022-08-05T12:08:03.553Z,35.56
2022-08-05T12:10:50.639Z,35.03
2022-08-05T12:13:56.022Z,34.61
2022-08-05T12:18:00.582Z,34.60
2022-08-05T12:20:33.680Z,34.79
2022-08-05T12:23:36.770Z,34.73
2022-08-05T12:26:50.030Z,34.54
2022-08-05T12:30:03.602Z,34.22
2022-08-05T12:33:07.206Z,33.92
2022-08-05T12:36:29.916Z,33.80
2022-08-05T12:39:38.567Z,33.83
2022-08-05T12:42:43.066Z,33.80
2022-08-05T12:45:53.185Z,33.79
2022-08-05T12:49:01.337Z,33.93
2022-08-05T12:52:25.308Z,33.99
2022-08-05T12:55:32.762Z,33.90
2022-08-05T12:58:49.311Z,33.72
2022-08-05T13:02:07.637Z,33.48
2022-08-05T13:05:11.112Z,33.19
2022-08-05T13:08:19.364Z,32.98
2022-08-05T13:11:25.380Z,32.86
2022-08-05T13:15:05.070Z,32.74
2022-08-05T13:18:09.324Z,32.85
2022-08-05T13:21:12.653Z,33.04
2022-08-05T13:24:27.559Z,33.02
2022-08-05T13:27:42.390Z,32.86
2022-08-05T13:30:48.471Z,32.84
2022-08-05T13:34:22.158Z,33.01
2022-08-05T13:37:27.233Z,33.45
2022-08-05T13:40:51.352Z,33.97
2022-08-05T13:43:55.401Z,34.45
2022-08-05T13:47:04.617Z,34.93
2022-08-05T13:50:16.520Z,35.25
2022-08-05T13:53:19.679Z,35.37
2022-08-05T13:56:22.529Z,35.19
2022-08-05T13:59:27.204Z,34.90
2022-08-05T14:02:35.075Z,34.68
2022-08-05T14:10:00.440Z,34.24
2022-08-05T14:13:03.608Z,34.60
2022-08-05T14:16:11.643Z,35.07
2022-08-05T14:19:15.946Z,35.33
2022-08-05T14:22:18.633Z,35.62
2022-08-05T14:25:22.672Z,35.82
2022-08-05T14:28:31.782Z,35.57
2022-08-05T14:31:54.451Z,34.87
2022-08-05T14:34:58.566Z,34.35
2022-08-05T14:38:01.301Z,34.21
2022-08-05T14:41:06.955Z,34.42
2022-08-05T14:44:19.964Z,34.78
2022-08-05T14:48:02.432Z,35.03
2022-08-05T14:50:47.639Z,35.03
2022-08-05T14:54:26.328Z,35.07
2022-08-05T14:57:14.098Z,34.87
2022-08-05T15:00:17.231Z,34.97
2022-08-05T15:03:22.947Z,34.89
2022-08-05T15:06:30.212Z,34.74
2022-08-05T15:09:51.968Z,34.78
2022-08-05T15:13:01.220Z,34.71
2022-08-05T15:16:06.859Z,34.62
2022-08-05T15:19:14.377Z,34.50
2022-08-05T15:22:28.113Z,34.59
2022-08-05T15:25:51.219Z,34.67
2022-08-05T15:28:54.094Z,34.51
2022-08-05T15:31:56.931Z,34.33
2022-08-05T15:34:59.605Z,34.06
2022-08-05T15:38:36.110Z,33.94
2022-08-05T15:41:57.378Z,33.65
2022-08-05T15:44:59.625Z,33.53
2022-08-05T15:48:03.646Z,33.36
2022-08-05T15:51:06.828Z,32.98
2022-08-05T15:54:11.292Z,32.83
2022-08-05T15:57:18.037Z,32.67
2022-08-05T16:00:30.523Z,32.58
2022-08-05T16:03:44.809Z,32.39
2022-08-05T16:06:51.474Z,32.41
2022-08-05T16:09:55.539Z,32.38
2022-08-05T16:12:58.242Z,32.29
2022-08-05T16:16:00.918Z,32.20
2022-08-05T16:19:04.090Z,32.04
2022-08-05T16:22:10.607Z,31.87
2022-08-05T16:25:15.078Z,31.58
2022-08-05T16:28:18.278Z,31.48
2022-08-05T16:31:21.054Z,31.34
2022-08-05T16:34:25.170Z,31.22
2022-08-05T16:38:03.378Z,31.11
2022-08-05T16:40:59.825Z,30.77
2022-08-05T16:44:03.561Z,30.62
2022-08-05T16:47:07.625Z,30.46
2022-08-05T16:50:30.339Z,30.26
2022-08-05T16:54:05.365Z,30.13
2022-08-05T16:56:58.207Z,30.05
2022-08-05T17:00:07.750Z,29.92
2022-08-05T17:03:19.700Z,29.83
2022-08-05T17:06:24.801Z,29.70
2022-08-05T17:09:27.707Z,29.53
2022-08-05T17:12:51.120Z,29.49
2022-08-05T17:15:55.694Z,29.36
2022-08-05T17:19:10.807Z,29.33
2022-08-05T17:22:24.498Z,29.14
2022-08-05T17:25:34.074Z,29.05
2022-08-05T17:28:44.523Z,29.03
2022-08-05T17:31:58.564Z,28.95
2022-08-05T17:35:02.016Z,28.83
2022-08-05T17:38:08.018Z,28.70
2022-08-05T17:41:23.026Z,28.60
2022-08-05T17:44:35.339Z,28.39
2022-08-05T17:47:39.111Z,28.35
2022-08-05T17:50:42.589Z,28.29
2022-08-05T17:53:45.867Z,28.19
2022-08-05T17:56:57.313Z,28.15
2022-08-05T18:00:04.907Z,28.15
2022-08-05T18:03:08.710Z,28.03
2022-08-05T18:06:15.069Z,27.93
2022-08-05T18:09:18.279Z,27.75
2022-08-05T18:12:24.011Z,27.61
2022-08-05T18:15:31.221Z,27.60
2022-08-05T18:18:39.634Z,27.42
2022-08-05T18:22:08.891Z,27.40
2022-08-05T18:25:05.733Z,27.33
2022-08-05T18:28:09.972Z,27.20
2022-08-05T18:31:15.913Z,27.05
2022-08-05T18:34:21.651Z,27.04
2022-08-05T18:37:34.667Z,26.93
2022-08-05T18:41:57.003Z,26.87
2022-08-05T18:44:07.871Z,26.77
2022-08-05T18:47:13.069Z,26.75
2022-08-05T18:50:42.187Z,26.68
2022-08-05T18:53:50.769Z,26.58
2022-08-05T18:56:53.611Z,26.46
2022-08-05T19:00:03.561Z,26.37
2022-08-05T19:03:11.833Z,26.33
2022-08-05T19:06:20.089Z,26.25
2022-08-05T19:09:24.509Z,26.23
2022-08-05T19:12:28.016Z,26.20
2022-08-05T19:15:57.468Z,26.16
2022-08-05T19:18:56.413Z,26.07
2022-08-05T19:21:59.738Z,25.98
2022-08-05T19:25:03.491Z,25.97
2022-08-05T19:28:06.346Z,25.88
2022-08-05T19:31:09.529Z,25.84
2022-08-05T19:34:18.771Z,25.81
2022-08-05T19:37:21.614Z,25.75
2022-08-05T19:40:30.536Z,25.77
2022-08-05T19:44:05.888Z,25.75
2022-08-05T19:46:56.837Z,25.62
2022-08-05T19:50:01.955Z,25.49
2022-08-05T19:53:10.532Z,25.32
2022-08-05T19:56:20.710Z,25.18
2022-08-05T19:59:59.410Z,25.18
2022-08-05T20:02:53.600Z,25.04
2022-08-05T20:05:59.120Z,24.85
2022-08-05T20:09:17.653Z,24.67
2022-08-05T20:12:20.642Z,24.52
2022-08-05T20:15:52.034Z,24.37
2022-08-05T20:21:50.353Z,24.00
2022-08-05T20:24:53.098Z,23.83
2022-08-05T20:27:56.489Z,23.77
2022-08-05T20:31:00.389Z,23.71
2022-08-05T20:34:04.423Z,23.70
2022-08-05T20:37:17.957Z,23.64
2022-08-05T20:40:32.793Z,23.55
2022-08-05T20:43:58.729Z,23.51
2022-08-05T20:46:59.138Z,23.62
2022-08-05T20:50:02.580Z,23.58
2022-08-05T20:53:16.332Z,23.47
2022-08-05T20:56:42.287Z,23.43
2022-08-05T21:00:10.696Z,23.39
2022-08-05T21:03:08.367Z,23.23
2022-08-05T21:06:27.570Z,23.25
2022-08-05T21:09:33.763Z,23.22
2022-08-05T21:12:39.821Z,23.21
2022-08-05T21:16:01.233Z,23.24
2022-08-05T21:19:04.526Z,23.19
2022-08-05T21:22:09.462Z,23.25
2022-08-05T21:25:15.952Z,23.23
2022-08-05T21:28:23.994Z,23.14
2022-08-05T21:31:41.313Z,23.13
2022-08-05T21:34:44.903Z,23.11
2022-08-05T21:38:07.709Z,23.14
2022-08-05T21:41:12.091Z,23.15
2022-08-05T21:44:15.415Z,23.13
2022-08-05T21:47:54.902Z,23.13
2022-08-05T21:50:41.078Z,23.14
2022-08-05T21:53:43.786Z,23.10
2022-08-05T21:57:29.800Z,23.12
2022-08-05T22:00:26.592Z,22.96
2022-08-05T22:03:51.773Z,22.94
2022-08-05T22:06:52.339Z,22.89
2022-08-05T22:09:55.055Z,22.83
2022-08-05T22:13:08.545Z,22.85
2022-08-05T22:16:39.527Z,22.86
2022-08-05T22:20:00.332Z,22.89
2022-08-05T22:23:21.415Z,22.87
2022-08-05T22:26:41.874Z,22.86
2022-08-05T22:29:54.259Z,22.86
2022-08-05T22:32:57.056Z,22.84
2022-08-05T22:36:00.883Z,22.84
2022-08-05T22:39:09.455Z,22.80
2022-08-05T22:42:15.584Z,22.79
2022-08-05T22:45:30.687Z,22.75
2022-08-05T22:48:33.637Z,22.72
2022-08-05T22:52:06.019Z,22.69
2022-08-05T22:55:01.021Z,22.74
2022-08-05T22:58:04.245Z,22.70
2022-08-05T23:01:09.475Z,22.70
2022-08-05T23:04:12.125Z,22.71
2022-08-05T23:07:14.861Z,22.63
2022-08-05T23:10:19.921Z,22.62
2022-08-05T23:13:23.279Z,22.63
2022-08-05T23:16:44.055Z,22.65
2022-08-05T23:19:55.965Z,22.68
2022-08-05T23:22:59.163Z,22.68
2022-08-05T23:26:01.944Z,22.63
2022-08-05T23:29:05.757Z,22.66
2022-08-05T23:32:14.377Z,22.62
2022-08-05T23:35:17.407Z,22.60
2022-08-05T23:38:20.529Z,22.61
2022-08-05T23:41:23.482Z,22.56
2022-08-05T23:44:31.103Z,22.60
2022-08-05T23:47:35.799Z,22.52
2022-08-05T23:50:50.782Z,22.54
2022-08-05T23:53:54.084Z,22.53
2022-08-05T23:57:04.899Z,22.52
